createdAt,value
2022-08-22T00:01:17.852Z,66.20
2022-08-22T00:04:00.279Z,66.31
2022-08-22T00:06:43.745Z,66.61
2022-08-22T00:09:32.065Z,66.52
2022-08-22T00:12:23.461Z,66.93
2022-08-22T00:15:08.030Z,66.93
2022-08-22T00:18:35.592Z,67.23
2022-08-22T00:21:23.469Z,67.21
2022-08-22T00:24:22.787Z,67.02
2022-08-22T00:27:24.094Z,67.30
2022-08-22T00:30:03.000Z,67.44
2022-08-22T00:32:47.018Z,67.40
2022-08-22T00:35:43.039Z,67.72
2022-08-22T00:38:20.449Z,67.68
2022-08-22T00:41:48.665Z,67.79
2022-08-22T00:44:34.124Z,68.32
2022-08-22T00:47:21.482Z,67.98
2022-08-22T00:50:26.316Z,68.28
2022-08-22T00:53:47.373Z,67.97
2022-08-22T00:56:47.200Z,68.08
2022-08-22T00:59:47.909Z,68.40
2022-08-22T01:02:52.840Z,68.55
2022-08-22T01:05:35.170Z,68.14
2022-08-22T01:08:26.368Z,68.53
2022-08-22T01:11:35.255Z,68.13
2022-08-22T01:14:34.289Z,68.66
2022-08-22T01:17:44.281Z,68.61
2022-08-22T01:20:36.237Z,68.34
2022-08-22T01:23:36.266Z,68.80
2022-08-22T01:26:47.884Z,68.96
2022-08-22T01:30:03.846Z,69.04
2022-08-22T01:32:31.859Z,69.02
2022-08-22T01:35:23.273Z,69.13
2022-08-22T01:38:05.243Z,68.91
2022-08-22T01:41:00.536Z,69.47
2022-08-22T01:44:06.871Z,69.00
2022-08-22T01:47:02.766Z,69.29
2022-08-22T01:49:38.148Z,69.19
2022-08-22T01:52:13.082Z,68.84
2022-08-22T01:54:52.795Z,68.85
2022-08-22T01:57:19.828Z,69.07
2022-08-22T01:59:48.992Z,68.81
2022-08-22T02:02:34.523Z,68.88
2022-08-22T02:05:40.409Z,68.58
2022-08-22T02:08:36.919Z,68.80
2022-08-22T02:11:10.713Z,68.57
2022-08-22T02:14:15.005Z,68.85
2022-08-22T02:16:44.692Z,68.22
2022-08-22T02:19:11.833Z,68.27
2022-08-22T02:21:53.756Z,68.22
2022-08-22T02:24:33.316Z,68.68
2022-08-22T02:27:04.283Z,68.83
2022-08-22T02:29:50.674Z,68.57
2022-08-22T02:32:33.221Z,68.38
2022-08-22T02:35:18.731Z,68.72
2022-08-22T02:37:54.852Z,68.36
2022-08-22T02:40:34.038Z,68.31
2022-08-22T02:43:43.738Z,68.69
2022-08-22T02:46:32.873Z,68.70
2022-08-22T02:49:13.162Z,68.83
2022-08-22T02:51:50.041Z,68.92
2022-08-22T02:54:28.844Z,68.59
2022-08-22T02:57:30.642Z,69.21
2022-08-22T03:00:25.008Z,69.16
2022-08-22T03:02:59.285Z,68.72
2022-08-22T03:05:36.807Z,69.09
2022-08-22T03:08:13.174Z,68.84
2022-08-22T03:10:46.061Z,68.69
2022-08-22T03:13:18.853Z,69.29
2022-08-22T03:15:54.180Z,69.30
2022-08-22T03:18:57.245Z,69.57
2022-08-22T03:21:32.911Z,69.75
2022-08-22T03:24:23.561Z,69.64
2022-08-22T03:26:58.737Z,69.29
2022-08-22T03:29:33.116Z,69.63
2022-08-22T03:32:09.136Z,69.53
2022-08-22T03:34:36.276Z,69.96
2022-08-22T03:37:13.516Z,69.74
2022-08-22T03:39:55.593Z,69.94
2022-08-22T03:42:41.536Z,70.17
2022-08-22T03:45:32.962Z,70.17
2022-08-22T03:48:21.745Z,70.30
2022-08-22T03:50:56.012Z,70.50
2022-08-22T03:53:49.191Z,70.58
2022-08-22T03:56:25.168Z,70.79
2022-08-22T03:59:34.553Z,70.42
2022-08-22T04:02:24.649Z,71.02
2022-08-22T04:05:19.233Z,70.96
2022-08-22T04:08:05.088Z,70.98
2022-08-22T04:10:53.816Z,70.88
2022-08-22T04:13:50.055Z,71.24
2022-08-22T04:16:44.605Z,71.36
2022-08-22T04:19:21.857Z,71.18
2022-08-22T04:21:57.992Z,71.38
2022-08-22T04:24:37.421Z,71.50
2022-08-22T04:27:10.245Z,71.74
2022-08-22T04:30:09.700Z,72.04
2022-08-22T04:32:44.455Z,71.51
2022-08-22T04:35:11.272Z,71.58
2022-08-22T04:37:46.494Z,71.85
2022-08-22T04:40:37.323Z,71.90
2022-08-22T04:43:10.554Z,72.05
2022-08-22T04:45:48.891Z,71.93
2022-08-22T04:48:33.742Z,72.18
2022-08-22T04:51:11.358Z,71.99
2022-08-22T04:53:50.394Z,72.55
2022-08-22T04:56:25.834Z,72.55
2022-08-22T04:59:02.951Z,71.98
2022-08-22T05:01:48.203Z,72.29
2022-08-22T05:04:59.318Z,72.37
2022-08-22T05:07:33.938Z,72.61
2022-08-22T05:10:12.478Z,72.48
2022-08-22T05:13:10.530Z,72.67
2022-08-22T05:15:43.727Z,72.64
2022-08-22T05:18:14.267Z,72.28
2022-08-22T05:20:41.189Z,72.63
2022-08-22T05:23:35.801Z,72.81
2022-08-22T05:26:04.145Z,72.79
2022-08-22T05:28:53.591Z,72.57
2022-08-22T05:31:26.618Z,73.04
2022-08-22T05:33:57.169Z,72.68
2022-08-22T05:36:29.243Z,72.63
2022-08-22T05:39:03.941Z,73.08
2022-08-22T05:41:34.649Z,72.62
2022-08-22T05:44:05.194Z,72.87
2022-08-22T05:46:42.220Z,72.92
2022-08-22T05:49:37.110Z,72.98
2022-08-22T05:52:13.073Z,73.06
2022-08-22T05:54:52.939Z,73.47
2022-08-22T05:57:32.067Z,73.08
2022-08-22T06:00:20.380Z,73.05
2022-08-22T06:03:15.043Z,73.19
2022-08-22T06:05:43.162Z,73.08
2022-08-22T06:08:36.016Z,73.11
2022-08-22T06:11:07.723Z,73.60
2022-08-22T06:14:03.832Z,73.77
2022-08-22T06:16:33.892Z,73.73
2022-08-22T06:19:00.982Z,73.40
2022-08-22T06:21:38.670Z,73.67
2022-08-22T06:24:08.770Z,73.63
2022-08-22T06:26:38.342Z,73.78
2022-08-22T06:29:05.799Z,73.74
2022-08-22T06:31:47.422Z,73.61
2022-08-22T06:34:23.073Z,73.49
2022-08-22T06:36:50.763Z,73.82
2022-08-22T06:39:19.623Z,74.07
2022-08-22T06:42:03.269Z,74.04
2022-08-22T06:44:35.981Z,73.42
2022-08-22T06:47:06.748Z,73.64
2022-08-22T06:49:35.147Z,73.97
2022-08-22T06:52:07.512Z,73.39
2022-08-22T06:54:37.128Z,73.32
2022-08-22T06:57:05.416Z,73.16
2022-08-22T06:59:35.410Z,73.08
2022-08-22T07:02:15.921Z,73.24
2022-08-22T07:04:43.523Z,73.60
2022-08-22T07:07:10.479Z,73.12
2022-08-22T07:09:40.662Z,72.97
2022-08-22T07:12:21.274Z,73.03
2022-08-22T07:14:53.372Z,73.07
2022-08-22T07:17:59.210Z,73.11
2022-08-22T07:20:36.421Z,73.05
2022-08-22T07:23:06.941Z,72.88
2022-08-22T07:25:37.554Z,73.17
2022-08-22T07:28:09.648Z,73.05
2022-08-22T07:30:42.923Z,72.67
2022-08-22T07:33:47.003Z,72.42
2022-08-22T07:36:43.322Z,72.01
2022-08-22T07:39:27.269Z,71.67
2022-08-22T07:42:13.193Z,71.17
2022-08-22T07:45:09.557Z,70.61
2022-08-22T07:48:25.416Z,70.57
2022-08-22T07:50:53.041Z,69.91
2022-08-22T07:53:40.193Z,69.64
2022-08-22T07:56:11.000Z,69.75
2022-08-22T07:58:39.652Z,69.53
2022-08-22T08:01:08.960Z,69.62
2022-08-22T08:03:36.060Z,68.89
2022-08-22T08:06:03.180Z,69.11
2022-08-22T08:08:34.582Z,69.45
2022-08-22T08:11:02.102Z,69.42
2022-08-22T08:13:35.896Z,69.00
2022-08-22T08:16:04.522Z,68.38
2022-08-22T08:18:34.035Z,68.26
2022-08-22T08:21:04.590Z,67.29
2022-08-22T08:23:39.713Z,67.50
2022-08-22T08:26:12.419Z,66.60
2022-08-22T08:28:42.289Z,66.23
2022-08-22T08:31:32.181Z,66.08
2022-08-22T08:34:11.066Z,65.77
2022-08-22T08:36:40.133Z,65.33
2022-08-22T08:39:22.249Z,64.69
2022-08-22T08:41:55.213Z,63.90
2022-08-22T08:44:43.231Z,63.70
2022-08-22T08:47:33.764Z,63.04
2022-08-22T08:50:21.963Z,62.26
2022-08-22T08:53:00.919Z,61.74
2022-08-22T08:55:48.093Z,61.60
2022-08-22T08:58:32.013Z,61.15
2022-08-22T09:01:38.834Z,59.94
2022-08-22T09:04:21.818Z,59.70
2022-08-22T09:06:56.745Z,58.85
2022-08-22T09:09:45.712Z,58.26
2022-08-22T09:12:26.714Z,57.98
2022-08-22T09:15:14.357Z,57.56
2022-08-22T09:18:06.415Z,57.42
2022-08-22T09:20:51.839Z,56.71
2022-08-22T09:23:46.012Z,56.76
2022-08-22T09:26:48.954Z,57.05
2022-08-22T09:29:22.375Z,56.66
2022-08-22T09:31:57.078Z,56.43
2022-08-22T09:34:38.060Z,56.17
2022-08-22T09:37:21.263Z,56.36
2022-08-22T09:40:21.276Z,56.08
2022-08-22T09:43:05.492Z,55.79
2022-08-22T09:45:45.542Z,55.48
2022-08-22T09:48:27.310Z,55.80
2022-08-22T09:51:31.545Z,55.93
2022-08-22T09:54:22.978Z,55.81
2022-08-22T09:57:02.783Z,55.46
2022-08-22T09:59:36.902Z,54.75
2022-08-22T10:02:30.263Z,54.65
2022-08-22T10:05:04.167Z,54.73
2022-08-22T10:07:56.448Z,54.96
2022-08-22T10:10:50.182Z,54.89
2022-08-22T10:13:42.091Z,54.59
2022-08-22T10:16:20.846Z,54.67
2022-08-22T10:19:09.247Z,54.80
2022-08-22T10:21:46.425Z,54.16
2022-08-22T10:24:36.026Z,54.39
2022-08-22T10:27:15.741Z,54.07
2022-08-22T10:29:54.278Z,54.05
2022-08-22T10:32:30.786Z,54.24
2022-08-22T10:35:19.908Z,54.14
2022-08-22T10:37:58.891Z,53.78
2022-08-22T10:40:33.218Z,53.19
2022-08-22T10:43:13.202Z,52.18
2022-08-22T10:45:42.534Z,51.95
2022-08-22T10:48:10.546Z,52.43
2022-08-22T10:50:43.150Z,52.39
2022-08-22T10:53:33.025Z,51.71
2022-08-22T10:56:11.829Z,52.33
2022-08-22T10:59:04.145Z,52.03
2022-08-22T11:01:41.986Z,52.19
2022-08-22T11:04:28.303Z,52.12
2022-08-22T11:07:48.759Z,52.01
2022-08-22T11:10:40.053Z,52.17
2022-08-22T11:13:28.927Z,51.95
2022-08-22T11:16:07.212Z,51.79
2022-08-22T11:19:04.900Z,52.27
2022-08-22T11:22:20.662Z,52.12
2022-08-22T11:25:14.562Z,52.38
2022-08-22T11:28:03.674Z,52.09
2022-08-22T11:30:45.102Z,52.03
2022-08-22T11:33:21.941Z,52.27
2022-08-22T11:36:31.731Z,51.78
2022-08-22T11:39:23.945Z,52.29
2022-08-22T11:42:21.810Z,52.54
2022-08-22T11:45:04.138Z,52.07
2022-08-22T11:47:35.300Z,52.08
2022-08-22T11:50:05.582Z,52.45
2022-08-22T11:52:51.699Z,51.98
2022-08-22T11:55:20.310Z,52.22
2022-08-22T11:57:50.713Z,51.87
2022-08-22T12:00:25.537Z,51.33
2022-08-22T12:03:13.007Z,51.61
2022-08-22T12:05:52.525Z,50.77
2022-08-22T12:08:37.391Z,50.82
2022-08-22T12:11:19.536Z,50.29
2022-08-22T12:14:04.169Z,49.82
2022-08-22T12:16:52.315Z,49.80
2022-08-22T12:19:19.664Z,49.60
2022-08-22T12:22:26.685Z,49.20
2022-08-22T12:25:38.550Z,49.40
2022-08-22T12:28:53.761Z,49.02
2022-08-22T12:31:47.201Z,49.14
2022-08-22T12:34:38.898Z,48.84
2022-08-22T12:37:52.083Z,47.78
2022-08-22T12:41:08.159Z,47.40
2022-08-22T12:44:21.449Z,47.85
2022-08-22T12:47:25.667Z,47.58
2022-08-22T12:50:07.680Z,47.23
2022-08-22T12:52:48.489Z,47.39
2022-08-22T12:55:25.018Z,47.26
2022-08-22T12:58:13.756Z,46.22
2022-08-22T13:00:45.248Z,45.56
2022-08-22T13:03:40.386Z,45.32
2022-08-22T13:06:33.497Z,46.02
2022-08-22T13:09:01.781Z,45.79
2022-08-22T13:11:29.238Z,45.80
2022-08-22T13:13:59.037Z,45.58
2022-08-22T13:16:38.246Z,45.54
2022-08-22T13:19:13.571Z,45.38
2022-08-22T13:21:45.718Z,45.47
2022-08-22T13:24:22.544Z,45.59
2022-08-22T13:26:55.737Z,45.45
2022-08-22T13:29:39.614Z,45.12
2022-08-22T13:32:17.446Z,45.59
2022-08-22T13:34:46.642Z,45.87
2022-08-22T13:37:24.526Z,45.66
2022-08-22T13:39:53.990Z,45.68
2022-08-22T13:42:30.359Z,45.67
2022-08-22T13:45:02.589Z,44.99
2022-08-22T13:47:34.503Z,45.74
2022-08-22T13:50:14.946Z,45.51
2022-08-22T13:52:52.566Z,46.30
2022-08-22T13:55:34.278Z,45.92
2022-08-22T13:58:21.948Z,45.74
2022-08-22T14:01:01.212Z,45.53
2022-08-22T14:03:49.119Z,45.12
2022-08-22T14:06:35.470Z,45.40
2022-08-22T14:09:31.230Z,45.77
2022-08-22T14:12:12.179Z,45.29
2022-08-22T14:14:46.207Z,45.70
2022-08-22T14:17:23.589Z,45.58
2022-08-22T14:20:13.753Z,45.68
2022-08-22T14:23:04.830Z,46.54
2022-08-22T14:25:37.627Z,46.49
2022-08-22T14:28:21.074Z,46.26
2022-08-22T14:30:58.215Z,47.19
2022-08-22T14:33:49.428Z,47.46
2022-08-22T14:36:25.573Z,46.87
2022-08-22T14:39:11.582Z,47.31
2022-08-22T14:41:52.898Z,47.23
2022-08-22T14:44:33.485Z,47.27
2022-08-22T14:47:02.268Z,47.63
2022-08-22T14:49:33.957Z,48.41
2022-08-22T14:52:19.538Z,47.15
2022-08-22T14:54:47.264Z,47.34
2022-08-22T14:57:15.018Z,46.75
2022-08-22T14:59:50.078Z,46.76
2022-08-22T15:02:30.753Z,46.78
2022-08-22T15:05:01.876Z,47.11
2022-08-22T15:07:36.279Z,46.56
2022-08-22T15:10:06.866Z,46.15
2022-08-22T15:12:47.827Z,46.35
2022-08-22T15:15:49.788Z,46.14
2022-08-22T15:18:28.009Z,46.30
2022-08-22T15:21:24.382Z,46.19
2022-08-22T15:23:53.835Z,45.92
2022-08-22T15:26:37.588Z,46.19
2022-08-22T15:29:15.322Z,46.20
2022-08-22T15:31:46.611Z,46.24
2022-08-22T15:34:32.866Z,45.90
2022-08-22T15:37:16.447Z,45.71
2022-08-22T15:40:12.065Z,45.98
2022-08-22T15:42:44.779Z,45.24
2022-08-22T15:45:19.973Z,45.43
2022-08-22T15:47:50.183Z,44.76
2022-08-22T15:50:33.958Z,45.22
2022-08-22T15:53:24.069Z,45.45
2022-08-22T15:56:05.196Z,44.95
2022-08-22T15:58:33.428Z,45.26
2022-08-22T16:01:19.208Z,45.78
2022-08-22T16:04:03.250Z,45.66
2022-08-22T16:06:50.538Z,44.95
2022-08-22T16:09:48.232Z,45.10
2022-08-22T16:12:31.786Z,44.98
2022-08-22T16:15:01.742Z,45.33
2022-08-22T16:17:28.796Z,45.70
2022-08-22T16:20:08.092Z,45.81
2022-08-22T16:22:56.094Z,46.13
2022-08-22T16:25:44.823Z,45.81
2022-08-22T16:28:56.862Z,45.90
2022-08-22T16:31:56.497Z,45.90
2022-08-22T16:34:38.764Z,45.79
2022-08-22T16:37:08.807Z,45.96
2022-08-22T16:40:04.645Z,46.30
2022-08-22T16:42:35.593Z,45.98
2022-08-22T16:45:11.755Z,45.91
2022-08-22T16:47:58.159Z,46.37
2022-08-22T16:50:30.942Z,45.71
2022-08-22T16:53:01.433Z,46.07
2022-08-22T16:55:31.912Z,46.04
2022-08-22T16:58:06.997Z,46.21
2022-08-22T17:00:58.083Z,46.01
2022-08-22T17:03:51.975Z,46.37
2022-08-22T17:06:54.450Z,46.67
2022-08-22T17:09:43.650Z,46.94
2022-08-22T17:12:34.917Z,46.98
2022-08-22T17:15:22.104Z,47.03
2022-08-22T17:18:11.932Z,47.52
2022-08-22T17:20:54.458Z,47.29
2022-08-22T17:23:34.853Z,47.34
2022-08-22T17:26:34.431Z,46.74
2022-08-22T17:29:20.945Z,47.00
2022-08-22T17:32:17.307Z,47.63
2022-08-22T17:35:13.701Z,47.42
2022-08-22T17:38:23.473Z,47.42
2022-08-22T17:41:08.218Z,47.74
2022-08-22T17:44:03.764Z,47.88
2022-08-22T17:46:53.145Z,47.69
2022-08-22T17:49:41.320Z,47.74
2022-08-22T17:52:38.101Z,48.32
2022-08-22T17:55:33.781Z,48.56
2022-08-22T17:58:03.944Z,49.19
2022-08-22T18:00:36.141Z,49.05
2022-08-22T18:03:09.227Z,49.11
2022-08-22T18:05:49.445Z,49.24
2022-08-22T18:11:20.915Z,49.96
2022-08-22T18:14:05.266Z,49.89
2022-08-22T18:16:52.542Z,49.88
2022-08-22T18:19:41.105Z,50.17
2022-08-22T18:22:13.768Z,50.41
2022-08-22T18:25:00.661Z,50.11
2022-08-22T18:27:36.349Z,50.09
2022-08-22T18:30:20.495Z,50.17
2022-08-22T18:32:52.436Z,50.46
2022-08-22T18:35:30.288Z,50.31
2022-08-22T18:38:20.216Z,50.60
2022-08-22T18:40:51.968Z,50.68
2022-08-22T18:43:26.157Z,50.73
2022-08-22T18:45:57.361Z,50.32
2022-08-22T18:48:45.978Z,50.78
2022-08-22T18:51:30.433Z,50.62
2022-08-22T18:54:11.187Z,51.00
2022-08-22T18:57:00.046Z,51.06
2022-08-22T18:59:42.125Z,51.25
2022-08-22T19:02:27.209Z,51.82
2022-08-22T19:05:13.817Z,51.62
2022-08-22T19:07:51.127Z,51.72
2022-08-22T19:10:34.442Z,52.01
2022-08-22T19:13:30.501Z,52.00
2022-08-22T19:16:43.766Z,52.43
2022-08-22T19:19:56.074Z,52.55
2022-08-22T19:22:30.272Z,52.56
2022-08-22T19:25:17.701Z,52.95
2022-08-22T19:28:11.898Z,52.89
2022-08-22T19:31:16.496Z,53.07
2022-08-22T19:34:08.732Z,52.96
2022-08-22T19:36:36.221Z,52.70
2022-08-22T19:39:32.710Z,52.90
2022-08-22T19:42:01.605Z,53.08
2022-08-22T19:44:32.994Z,52.95
2022-08-22T19:47:18.232Z,52.85
2022-08-22T19:50:05.364Z,53.15
2022-08-22T19:52:46.565Z,53.04
2022-08-22T19:55:38.221Z,53.33
2022-08-22T19:58:32.548Z,53.60
2022-08-22T20:01:31.825Z,53.33
2022-08-22T20:04:20.709Z,53.05
2022-08-22T20:07:22.801Z,53.83
2022-08-22T20:10:37.085Z,53.23
2022-08-22T20:13:19.051Z,53.92
2022-08-22T20:16:23.623Z,53.96
2022-08-22T20:19:06.530Z,54.18
2022-08-22T20:21:44.173Z,54.03
2022-08-22T20:24:39.756Z,54.35
2022-08-22T20:27:18.610Z,54.22
2022-08-22T20:29:55.780Z,54.26
2022-08-22T20:32:24.383Z,54.39
2022-08-22T20:34:59.231Z,54.43
2022-08-22T20:38:02.807Z,54.76
2022-08-22T20:40:56.700Z,54.47
2022-08-22T20:43:45.808Z,54.63
2022-08-22T20:46:55.037Z,54.76
2022-08-22T20:49:42.421Z,55.04
2022-08-22T20:52:31.110Z,55.44
2022-08-22T20:55:21.656Z,55.13
2022-08-22T20:57:59.477Z,55.18
2022-08-22T21:00:47.941Z,55.41
2022-08-22T21:03:39.072Z,55.86
2022-08-22T21:06:16.784Z,55.67
2022-08-22T21:09:08.441Z,56.04
2022-08-22T21:11:41.727Z,56.68
2022-08-22T21:14:21.387Z,56.86
2022-08-22T21:16:49.054Z,56.68
2022-08-22T21:19:32.788Z,56.72
2022-08-22T21:22:25.894Z,57.34
2022-08-22T21:24:56.626Z,57.28
2022-08-22T21:27:34.042Z,57.68
2022-08-22T21:30:02.956Z,57.78
2022-08-22T21:32:37.786Z,57.91
2022-08-22T21:35:05.345Z,57.70
2022-08-22T21:37:35.801Z,57.93
2022-08-22T21:40:16.149Z,57.99
2022-08-22T21:42:45.435Z,58.75
2022-08-22T21:45:26.367Z,58.91
2022-08-22T21:47:53.546Z,58.94
2022-08-22T21:50:23.578Z,58.56
2022-08-22T21:52:56.388Z,59.08
2022-08-22T21:55:24.004Z,59.49
2022-08-22T21:58:08.968Z,59.75
2022-08-22T22:00:49.467Z,59.89
2022-08-22T22:03:19.601Z,60.25
2022-08-22T22:05:47.165Z,59.98
2022-08-22T22:08:14.092Z,60.54
2022-08-22T22:10:42.487Z,60.26
2022-08-22T22:13:09.995Z,60.47
2022-08-22T22:15:46.500Z,60.89
2022-08-22T22:18:15.235Z,61.20
2022-08-22T22:20:42.584Z,60.86
2022-08-22T22:23:10.004Z,61.09
2022-08-22T22:25:40.263Z,61.46
2022-08-22T22:28:21.908Z,61.01
2022-08-22T22:30:53.464Z,61.20
2022-08-22T22:33:21.637Z,62.04
2022-08-22T22:35:48.638Z,61.70
2022-08-22T22:38:16.956Z,62.40
2022-08-22T22:40:46.400Z,62.29
2022-08-22T22:43:13.627Z,62.94
2022-08-22T22:45:40.993Z,62.82
2022-08-22T22:48:08.327Z,63.05
2022-08-22T22:50:40.682Z,63.43
2022-08-22T22:53:09.489Z,63.36
2022-08-22T22:55:37.044Z,63.91
2022-08-22T22:58:08.757Z,63.79
2022-08-22T23:00:37.436Z,63.47
2022-08-22T23:03:05.440Z,63.76
2022-08-22T23:05:33.755Z,64.00
2022-08-22T23:08:01.146Z,64.20
2022-08-22T23:10:29.226Z,63.75
2022-08-22T23:12:56.909Z,63.92
2022-08-22T23:15:24.073Z,63.99
2022-08-22T23:17:51.233Z,64.44
2022-08-22T23:20:18.536Z,64.29
2022-08-22T23:22:46.041Z,64.54
2022-08-22T23:25:13.098Z,64.49
2022-08-22T23:27:40.344Z,64.71
2022-08-22T23:30:11.222Z,64.91
2022-08-22T23:32:38.186Z,64.42
2022-08-22T23:35:05.985Z,64.52
2022-08-22T23:37:33.112Z,64.64
2022-08-22T23:40:01.421Z,65.13
2022-08-22T23:42:29.866Z,64.70
2022-08-22T23:44:56.809Z,65.20
2022-08-22T23:47:23.803Z,64.88
2022-08-22T23:49:50.941Z,65.57
2022-08-22T23:52:17.889Z,65.94
2022-08-22T23:54:44.857Z,66.02
2022-08-22T23:57:12.834Z,66.21
2022-08-22T23:59:44.567Z,65.73
